sensor_id;sensor_type;location;lat;lon;timestamp;pressure;altitude;pressure_sealevel;temperature;humidity
68712;BME280;55690;51.566;19.198;2023-03-13T00:02:02;101070.10;;;5.61;86.46
68712;BME280;55690;51.566;19.198;2023-03-13T00:06:08;101060.04;;;5.27;87.69
68712;BME280;55690;51.566;19.198;2023-03-13T00:10:14;101061.73;;;5.48;87.54
68712;BME280;55690;51.566;19.198;2023-03-13T00:14:20;101058.77;;;5.72;85.88
68712;BME280;55690;51.566;19.198;2023-03-13T00:18:27;101057.83;;;5.73;86.46
68712;BME280;55690;51.566;19.198;2023-03-13T00:22:33;101054.48;;;5.67;86.77
68712;BME280;55690;51.566;19.198;2023-03-13T00:26:39;101055.98;;;5.18;88.95
68712;BME280;55690;51.566;19.198;2023-03-13T00:30:45;101043.23;;;5.22;89.17
68712;BME280;55690;51.566;19.198;2023-03-13T00:34:51;101040.56;;;4.83;91.10
68712;BME280;55690;51.566;19.198;2023-03-13T00:38:58;101030.29;;;5.11;89.54
68712;BME280;55690;51.566;19.198;2023-03-13T00:43:04;101034.73;;;5.50;88.46
68712;BME280;55690;51.566;19.198;2023-03-13T00:47:10;101019.65;;;5.27;89.38
68712;BME280;55690;51.566;19.198;2023-03-13T00:51:17;101007.02;;;5.65;87.29
68712;BME280;55690;51.566;19.198;2023-03-13T00:55:23;101005.83;;;5.34;88.83
68712;BME280;55690;51.566;19.198;2023-03-13T00:59:28;100998.23;;;5.61;88.01
68712;BME280;55690;51.566;19.198;2023-03-13T01:03:36;101000.37;;;5.36;89.03
68712;BME280;55690;51.566;19.198;2023-03-13T01:07:41;100992.93;;;5.77;88.18
68712;BME280;55690;51.566;19.198;2023-03-13T01:11:47;100988.58;;;5.39;89.00
68712;BME280;55690;51.566;19.198;2023-03-13T01:15:53;100993.01;;;5.21;90.27
68712;BME280;55690;51.566;19.198;2023-03-13T01:19:59;100997.30;;;5.80;87.92
68712;BME280;55690;51.566;19.198;2023-03-13T01:24:06;100996.41;;;5.98;87.17
68712;BME280;55690;51.566;19.198;2023-03-13T01:28:12;100992.85;;;5.61;88.88
68712;BME280;55690;51.566;19.198;2023-03-13T01:32:18;100987.96;;;5.87;88.22
68712;BME280;55690;51.566;19.198;2023-03-13T01:36:25;100986.03;;;5.72;88.95
68712;BME280;55690;51.566;19.198;2023-03-13T01:40:30;100982.45;;;5.90;88.53
68712;BME280;55690;51.566;19.198;2023-03-13T01:53:03;100965.06;;;5.42;91.04
68712;BME280;55690;51.566;19.198;2023-03-13T02:01:19;100971.59;;;5.91;88.94
68712;BME280;55690;51.566;19.198;2023-03-13T02:05:24;100965.97;;;5.96;89.71
68712;BME280;55690;51.566;19.198;2023-03-13T02:09:29;100955.50;;;5.90;89.81
68712;BME280;55690;51.566;19.198;2023-03-13T02:13:32;100968.89;;;5.91;90.13
68712;BME280;55690;51.566;19.198;2023-03-13T02:17:34;100958.86;;;5.59;91.36
68712;BME280;55690;51.566;19.198;2023-03-13T02:21:42;100959.14;;;5.89;90.69
68712;BME280;55690;51.566;19.198;2023-03-13T02:25:48;100962.32;;;5.97;90.31
68712;BME280;55690;51.566;19.198;2023-03-13T02:29:51;100976.02;;;6.27;88.72
68712;BME280;55690;51.566;19.198;2023-03-13T02:33:54;100978.48;;;6.31;89.11
68712;BME280;55690;51.566;19.198;2023-03-13T02:38:00;100974.67;;;6.36;89.44
68712;BME280;55690;51.566;19.198;2023-03-13T02:42:04;100976.09;;;6.43;89.62
68712;BME280;55690;51.566;19.198;2023-03-13T02:46:15;100970.23;;;6.34;90.05
68712;BME280;55690;51.566;19.198;2023-03-13T02:50:18;100973.08;;;6.31;90.27
68712;BME280;55690;51.566;19.198;2023-03-13T02:54:30;100974.68;;;6.68;89.05
68712;BME280;55690;51.566;19.198;2023-03-13T02:58:39;100970.48;;;6.63;89.38
68712;BME280;55690;51.566;19.198;2023-03-13T03:02:41;100970.28;;;6.83;89.06
68712;BME280;55690;51.566;19.198;2023-03-13T03:06:42;100974.73;;;7.00;88.60
68712;BME280;55690;51.566;19.198;2023-03-13T03:10:46;100967.50;;;6.85;89.62
68712;BME280;55690;51.566;19.198;2023-03-13T03:14:52;100973.61;;;6.88;88.87
68712;BME280;55690;51.566;19.198;2023-03-13T03:18:59;100971.61;;;6.92;89.67
68712;BME280;55690;51.566;19.198;2023-03-13T03:23:05;100967.44;;;7.18;88.94
68712;BME280;55690;51.566;19.198;2023-03-13T03:27:11;100971.55;;;7.25;88.85
68712;BME280;55690;51.566;19.198;2023-03-13T03:31:17;100977.54;;;7.14;88.97
68712;BME280;55690;51.566;19.198;2023-03-13T03:35:23;100970.73;;;7.07;89.36
68712;BME280;55690;51.566;19.198;2023-03-13T03:39:30;100969.66;;;6.94;90.05
68712;BME280;55690;51.566;19.198;2023-03-13T03:43:36;100968.93;;;7.23;89.04
68712;BME280;55690;51.566;19.198;2023-03-13T03:47:42;100974.25;;;7.25;88.83
68712;BME280;55690;51.566;19.198;2023-03-13T03:51:48;100973.09;;;7.45;88.18
68712;BME280;55690;51.566;19.198;2023-03-13T03:55:54;100970.59;;;7.26;89.47
68712;BME280;55690;51.566;19.198;2023-03-13T04:00:01;100961.09;;;7.34;88.97
68712;BME280;55690;51.566;19.198;2023-03-13T04:04:07;100958.82;;;7.27;90.14
68712;BME280;55690;51.566;19.198;2023-03-13T04:08:13;100957.44;;;7.36;89.69
68712;BME280;55690;51.566;19.198;2023-03-13T04:12:19;100957.40;;;7.51;89.26
68712;BME280;55690;51.566;19.198;2023-03-13T04:16:25;100940.00;;;7.25;89.96
68712;BME280;55690;51.566;19.198;2023-03-13T04:20:32;100970.91;;;7.51;90.60
68712;BME280;55690;51.566;19.198;2023-03-13T04:24:38;100974.74;;;7.47;90.50
68712;BME280;55690;51.566;19.198;2023-03-13T04:28:44;100965.36;;;7.23;91.74
68712;BME280;55690;51.566;19.198;2023-03-13T04:32:50;100968.67;;;7.28;92.27
68712;BME280;55690;51.566;19.198;2023-03-13T04:36:56;100960.45;;;7.45;91.68
68712;BME280;55690;51.566;19.198;2023-03-13T04:41:02;100958.34;;;7.66;91.16
68712;BME280;55690;51.566;19.198;2023-03-13T04:45:11;100955.13;;;7.59;91.62
68712;BME280;55690;51.566;19.198;2023-03-13T04:49:15;100952.43;;;7.59;91.24
68712;BME280;55690;51.566;19.198;2023-03-13T04:53:21;100949.82;;;7.42;91.85
68712;BME280;55690;51.566;19.198;2023-03-13T04:57:27;100946.93;;;7.61;92.21
68712;BME280;55690;51.566;19.198;2023-03-13T05:01:34;100939.01;;;7.42;92.71
68712;BME280;55690;51.566;19.198;2023-03-13T05:05:39;100944.50;;;7.86;91.48
68712;BME280;55690;51.566;19.198;2023-03-13T05:09:46;100946.34;;;7.86;91.95
68712;BME280;55690;51.566;19.198;2023-03-13T05:13:52;100935.67;;;7.98;91.14
68712;BME280;55690;51.566;19.198;2023-03-13T05:17:58;100928.77;;;7.79;92.39
68712;BME280;55690;51.566;19.198;2023-03-13T05:22:04;100926.53;;;7.55;94.34
68712;BME280;55690;51.566;19.198;2023-03-13T05:26:10;100914.77;;;7.86;92.53
68712;BME280;55690;51.566;19.198;2023-03-13T05:30:16;100913.99;;;7.54;93.93
68712;BME280;55690;51.566;19.198;2023-03-13T05:34:23;100915.91;;;7.82;93.21
68712;BME280;55690;51.566;19.198;2023-03-13T05:38:29;100904.13;;;7.83;93.00
68712;BME280;55690;51.566;19.198;2023-03-13T05:42:35;100900.38;;;7.86;93.51
68712;BME280;55690;51.566;19.198;2023-03-13T05:46:41;100905.59;;;7.89;94.04
68712;BME280;55690;51.566;19.198;2023-03-13T05:50:47;100899.82;;;7.95;94.21
68712;BME280;55690;51.566;19.198;2023-03-13T05:54:54;100906.74;;;7.85;94.87
68712;BME280;55690;51.566;19.198;2023-03-13T05:59:00;100906.89;;;7.97;94.96
68712;BME280;55690;51.566;19.198;2023-03-13T06:03:06;100902.21;;;7.85;96.44
68712;BME280;55690;51.566;19.198;2023-03-13T06:07:13;100897.03;;;7.96;95.93
68712;BME280;55690;51.566;19.198;2023-03-13T06:11:18;100888.77;;;8.14;95.44
68712;BME280;55690;51.566;19.198;2023-03-13T06:15:24;100884.03;;;8.31;94.57
68712;BME280;55690;51.566;19.198;2023-03-13T06:19:31;100880.74;;;8.26;95.82
68712;BME280;55690;51.566;19.198;2023-03-13T06:23:37;100872.57;;;8.42;94.53
68712;BME280;55690;51.566;19.198;2023-03-13T06:27:43;100876.86;;;8.02;97.20
68712;BME280;55690;51.566;19.198;2023-03-13T06:31:50;100877.52;;;8.50;95.50
68712;BME280;55690;51.566;19.198;2023-03-13T06:35:56;100876.94;;;8.59;95.29
68712;BME280;55690;51.566;19.198;2023-03-13T06:40:02;100878.92;;;8.70;95.16
68712;BME280;55690;51.566;19.198;2023-03-13T06:44:08;100886.66;;;8.76;95.93
68712;BME280;55690;51.566;19.198;2023-03-13T06:48:14;100888.40;;;8.77;96.40
68712;BME280;55690;51.566;19.198;2023-03-13T06:52:20;100876.09;;;8.99;95.14
68712;BME280;55690;51.566;19.198;2023-03-13T06:56:26;100866.16;;;9.13;94.67
68712;BME280;55690;51.566;19.198;2023-03-13T07:00:32;100878.74;;;9.14;95.76
68712;BME280;55690;51.566;19.198;2023-03-13T07:04:39;100873.20;;;9.29;95.16
68712;BME280;55690;51.566;19.198;2023-03-13T07:08:45;100881.22;;;9.31;95.26
68712;BME280;55690;51.566;19.198;2023-03-13T07:12:51;100880.62;;;9.40;95.35
68712;BME280;55690;51.566;19.198;2023-03-13T07:16:58;100870.08;;;9.75;93.58
68712;BME280;55690;51.566;19.198;2023-03-13T07:21:04;100871.61;;;9.40;94.46
68712;BME280;55690;51.566;19.198;2023-03-13T07:25:09;100870.91;;;9.63;94.11
68712;BME280;55690;51.566;19.198;2023-03-13T07:29:16;100849.94;;;10.17;93.10
68712;BME280;55690;51.566;19.198;2023-03-13T07:33:22;100844.18;;;10.09;91.79
68712;BME280;55690;51.566;19.198;2023-03-13T07:37:28;100853.34;;;10.33;92.22
68712;BME280;55690;51.566;19.198;2023-03-13T07:41:34;100840.20;;;10.89;90.90
68712;BME280;55690;51.566;19.198;2023-03-13T07:49:53;100840.46;;;11.10;90.34
68712;BME280;55690;51.566;19.198;2023-03-13T07:53:54;100824.41;;;10.58;90.42
68712;BME280;55690;51.566;19.198;2023-03-13T07:57:59;100825.71;;;11.02;90.27
68712;BME280;55690;51.566;19.198;2023-03-13T08:02:05;100806.83;;;10.51;91.15
68712;BME280;55690;51.566;19.198;2023-03-13T08:06:13;100799.77;;;11.21;89.41
68712;BME280;55690;51.566;19.198;2023-03-13T08:10:17;100787.23;;;11.43;88.60
68712;BME280;55690;51.566;19.198;2023-03-13T08:14:24;100791.73;;;11.90;87.32
68712;BME280;55690;51.566;19.198;2023-03-13T08:18:30;100783.97;;;12.08;86.93
68712;BME280;55690;51.566;19.198;2023-03-13T08:22:36;100768.74;;;12.27;86.68
68712;BME280;55690;51.566;19.198;2023-03-13T08:26:42;100767.02;;;12.26;86.94
68712;BME280;55690;51.566;19.198;2023-03-13T08:30:48;100754.36;;;11.81;86.75
68712;BME280;55690;51.566;19.198;2023-03-13T08:34:54;100754.88;;;12.42;85.54
68712;BME280;55690;51.566;19.198;2023-03-13T08:39:04;100749.69;;;12.27;85.15
68712;BME280;55690;51.566;19.198;2023-03-13T08:43:07;100750.30;;;12.53;84.62
68712;BME280;55690;51.566;19.198;2023-03-13T08:47:13;100744.36;;;11.92;85.36
68712;BME280;55690;51.566;19.198;2023-03-13T08:51:21;100740.40;;;12.41;84.71
68712;BME280;55690;51.566;19.198;2023-03-13T08:55:25;100742.17;;;12.85;83.70
68712;BME280;55690;51.566;19.198;2023-03-13T08:59:32;100730.38;;;12.96;82.58
68712;BME280;55690;51.566;19.198;2023-03-13T09:03:39;100718.56;;;12.63;83.07
68712;BME280;55690;51.566;19.198;2023-03-13T09:07:44;100726.08;;;13.14;81.40
68712;BME280;55690;51.566;19.198;2023-03-13T09:11:50;100725.77;;;13.40;81.15
68712;BME280;55690;51.566;19.198;2023-03-13T09:16:04;100725.81;;;13.49;80.04
68712;BME280;55690;51.566;19.198;2023-03-13T09:20:07;100724.88;;;13.81;78.97
68712;BME280;55690;51.566;19.198;2023-03-13T09:24:09;100734.38;;;13.86;79.69
68712;BME280;55690;51.566;19.198;2023-03-13T09:28:15;100724.21;;;14.19;78.41
68712;BME280;55690;51.566;19.198;2023-03-13T09:32:21;100718.07;;;14.26;78.35
68712;BME280;55690;51.566;19.198;2023-03-13T09:36:27;100719.98;;;14.05;77.71
68712;BME280;55690;51.566;19.198;2023-03-13T09:40:44;100711.23;;;14.42;77.98
68712;BME280;55690;51.566;19.198;2023-03-13T09:44:54;100709.78;;;14.07;77.92
68712;BME280;55690;51.566;19.198;2023-03-13T09:49:03;100710.00;;;13.94;77.70
68712;BME280;55690;51.566;19.198;2023-03-13T10:01:34;100658.23;;;14.63;76.51
68712;BME280;55690;51.566;19.198;2023-03-13T10:05:38;100664.41;;;14.75;75.89
68712;BME280;55690;51.566;19.198;2023-03-13T10:09:43;100652.49;;;14.95;75.63
68712;BME280;55690;51.566;19.198;2023-03-13T10:13:52;100656.05;;;14.57;75.11
68712;BME280;55690;51.566;19.198;2023-03-13T10:17:59;100646.68;;;13.70;76.21
68712;BME280;55690;51.566;19.198;2023-03-13T10:22:15;100646.62;;;13.91;75.79
68712;BME280;55690;51.566;19.198;2023-03-13T10:26:23;100631.17;;;14.51;75.21
68712;BME280;55690;51.566;19.198;2023-03-13T10:37:23;100600.24;;;14.79;74.07
68712;BME280;55690;51.566;19.198;2023-03-13T10:41:32;100604.71;;;14.61;74.47
68712;BME280;55690;51.566;19.198;2023-03-13T10:45:36;100592.65;;;14.63;74.66
68712;BME280;55690;51.566;19.198;2023-03-13T10:53:50;100562.46;;;15.31;72.97
68712;BME280;55690;51.566;19.198;2023-03-13T10:58:01;100564.45;;;14.73;73.53
68712;BME280;55690;51.566;19.198;2023-03-13T11:02:18;100547.02;;;14.74;73.99
68712;BME280;55690;51.566;19.198;2023-03-13T11:10:29;100530.49;;;15.31;73.52
68712;BME280;55690;51.566;19.198;2023-03-13T11:14:31;100521.87;;;14.70;74.36
68712;BME280;55690;51.566;19.198;2023-03-13T11:23:05;100516.66;;;14.77;74.97
68712;BME280;55690;51.566;19.198;2023-03-13T11:31:21;100509.73;;;15.02;75.76
68712;BME280;55690;51.566;19.198;2023-03-13T11:39:51;100533.48;;;14.91;77.43
68712;BME280;55690;51.566;19.198;2023-03-13T11:52:34;100498.10;;;14.32;79.70
68712;BME280;55690;51.566;19.198;2023-03-13T11:56:43;100491.67;;;14.43;79.92
68712;BME280;55690;51.566;19.198;2023-03-13T12:05:03;100488.60;;;14.75;80.58
68712;BME280;55690;51.566;19.198;2023-03-13T12:09:23;100485.63;;;14.49;82.27
68712;BME280;55690;51.566;19.198;2023-03-13T12:13:33;100484.02;;;14.08;83.50
68712;BME280;55690;51.566;19.198;2023-03-13T12:17:42;100474.98;;;14.46;83.59
68712;BME280;55690;51.566;19.198;2023-03-13T12:21:49;100477.10;;;13.84;86.16
68712;BME280;55690;51.566;19.198;2023-03-13T12:30:18;100464.16;;;13.96;87.46
68712;BME280;55690;51.566;19.198;2023-03-13T12:34:34;100450.23;;;13.80;88.58
68712;BME280;55690;51.566;19.198;2023-03-13T12:43:41;100431.34;;;13.48;90.26
68712;BME280;55690;51.566;19.198;2023-03-13T12:59:47;100396.26;;;13.24;90.92
68712;BME280;55690;51.566;19.198;2023-03-13T13:03:59;100393.15;;;13.48;89.28
68712;BME280;55690;51.566;19.198;2023-03-13T13:08:02;100392.74;;;13.62;88.60
68712;BME280;55690;51.566;19.198;2023-03-13T13:16:22;100397.60;;;13.39;88.27
68712;BME280;55690;51.566;19.198;2023-03-13T13:20:33;100388.13;;;13.53;87.28
68712;BME280;55690;51.566;19.198;2023-03-13T13:24:47;100379.26;;;13.70;86.28
68712;BME280;55690;51.566;19.198;2023-03-13T13:28:48;100382.57;;;13.74;86.09
68712;BME280;55690;51.566;19.198;2023-03-13T13:32:54;100389.91;;;13.83;85.61
68712;BME280;55690;51.566;19.198;2023-03-13T13:36:58;100388.69;;;13.47;85.34
68712;BME280;55690;51.566;19.198;2023-03-13T13:45:21;100385.70;;;13.59;84.96
68712;BME280;55690;51.566;19.198;2023-03-13T13:49:34;100377.27;;;13.82;84.98
68712;BME280;55690;51.566;19.198;2023-03-13T13:58:02;100371.95;;;13.71;84.16
68712;BME280;55690;51.566;19.198;2023-03-13T14:02:13;100385.58;;;13.90;82.98
68712;BME280;55690;51.566;19.198;2023-03-13T14:06:20;100364.61;;;14.00;82.11
68712;BME280;55690;51.566;19.198;2023-03-13T14:10:34;100381.09;;;14.47;81.49
68712;BME280;55690;51.566;19.198;2023-03-13T14:14:36;100370.30;;;14.36;81.21
68712;BME280;55690;51.566;19.198;2023-03-13T14:18:40;100379.25;;;13.89;82.16
68712;BME280;55690;51.566;19.198;2023-03-13T14:22:47;100356.12;;;14.13;82.12
68712;BME280;55690;51.566;19.198;2023-03-13T14:26:49;100359.85;;;13.54;83.26
68712;BME280;55690;51.566;19.198;2023-03-13T14:30:52;100367.62;;;13.97;81.95
68712;BME280;55690;51.566;19.198;2023-03-13T14:34:55;100348.49;;;13.49;82.88
68712;BME280;55690;51.566;19.198;2023-03-13T14:38:59;100356.10;;;13.45;84.30
68712;BME280;55690;51.566;19.198;2023-03-13T14:43:01;100349.98;;;13.82;84.43
68712;BME280;55690;51.566;19.198;2023-03-13T14:47:07;100358.28;;;13.61;85.13
68712;BME280;55690;51.566;19.198;2023-03-13T14:51:16;100357.30;;;13.72;84.61
68712;BME280;55690;51.566;19.198;2023-03-13T14:55:27;100354.84;;;13.69;84.05
68712;BME280;55690;51.566;19.198;2023-03-13T14:59:29;100346.20;;;14.02;83.37
68712;BME280;55690;51.566;19.198;2023-03-13T15:03:32;100330.44;;;13.77;84.28
68712;BME280;55690;51.566;19.198;2023-03-13T15:07:40;100327.54;;;13.49;85.37
68712;BME280;55690;51.566;19.198;2023-03-13T15:15:54;100331.28;;;13.58;86.42
68712;BME280;55690;51.566;19.198;2023-03-13T15:19:57;100333.72;;;13.61;86.60
68712;BME280;55690;51.566;19.198;2023-03-13T15:24:02;100322.24;;;13.57;86.39
68712;BME280;55690;51.566;19.198;2023-03-13T15:28:17;100322.92;;;13.21;87.47
68712;BME280;55690;51.566;19.198;2023-03-13T15:32:29;100318.06;;;13.53;86.60
68712;BME280;55690;51.566;19.198;2023-03-13T15:36:31;100320.09;;;13.42;86.01
68712;BME280;55690;51.566;19.198;2023-03-13T15:40:32;100331.14;;;13.59;84.95
68712;BME280;55690;51.566;19.198;2023-03-13T15:44:34;100329.14;;;13.61;84.56
68712;BME280;55690;51.566;19.198;2023-03-13T15:48:36;100312.91;;;13.60;83.38
68712;BME280;55690;51.566;19.198;2023-03-13T15:52:39;100286.77;;;13.57;83.41
68712;BME280;55690;51.566;19.198;2023-03-13T15:56:41;100295.39;;;13.62;83.70
68712;BME280;55690;51.566;19.198;2023-03-13T16:00:44;100313.34;;;13.65;83.29
68712;BME280;55690;51.566;19.198;2023-03-13T16:04:46;100305.73;;;13.69;82.68
68712;BME280;55690;51.566;19.198;2023-03-13T16:08:47;100291.95;;;13.80;82.64
68712;BME280;55690;51.566;19.198;2023-03-13T16:12:49;100314.92;;;13.77;82.27
68712;BME280;55690;51.566;19.198;2023-03-13T16:16:50;100314.35;;;13.74;82.05
68712;BME280;55690;51.566;19.198;2023-03-13T16:20:53;100306.55;;;13.98;81.68
68712;BME280;55690;51.566;19.198;2023-03-13T16:24:55;100319.63;;;14.04;81.65
68712;BME280;55690;51.566;19.198;2023-03-13T16:28:57;100320.92;;;14.00;80.99
68712;BME280;55690;51.566;19.198;2023-03-13T16:32:59;100320.35;;;13.87;80.64
68712;BME280;55690;51.566;19.198;2023-03-13T16:37:00;100322.39;;;13.85;80.44
68712;BME280;55690;51.566;19.198;2023-03-13T16:41:02;100319.81;;;13.83;79.95
68712;BME280;55690;51.566;19.198;2023-03-13T16:45:04;100329.84;;;13.54;79.74
68712;BME280;55690;51.566;19.198;2023-03-13T16:49:12;100319.05;;;14.01;78.15
68712;BME280;55690;51.566;19.198;2023-03-13T16:53:14;100323.23;;;13.95;77.97
68712;BME280;55690;51.566;19.198;2023-03-13T16:57:21;100328.13;;;13.62;78.63
68712;BME280;55690;51.566;19.198;2023-03-13T17:01:23;100309.16;;;13.51;78.63
68712;BME280;55690;51.566;19.198;2023-03-13T17:05:26;100308.59;;;13.57;78.21
68712;BME280;55690;51.566;19.198;2023-03-13T17:09:28;100294.10;;;13.67;77.55
68712;BME280;55690;51.566;19.198;2023-03-13T17:13:29;100275.99;;;13.85;76.34
68712;BME280;55690;51.566;19.198;2023-03-13T17:17:32;100282.60;;;13.73;76.91
68712;BME280;55690;51.566;19.198;2023-03-13T17:21:34;100284.62;;;13.61;77.47
68712;BME280;55690;51.566;19.198;2023-03-13T17:25:36;100283.33;;;13.55;76.99
68712;BME280;55690;51.566;19.198;2023-03-13T17:29:38;100290.61;;;13.93;77.07
68712;BME280;55690;51.566;19.198;2023-03-13T17:33:39;100296.69;;;13.78;76.33
68712;BME280;55690;51.566;19.198;2023-03-13T17:37:41;100283.04;;;13.78;76.07
68712;BME280;55690;51.566;19.198;2023-03-13T17:41:44;100287.20;;;13.62;75.84
68712;BME280;55690;51.566;19.198;2023-03-13T17:45:46;100287.20;;;13.72;76.55
68712;BME280;55690;51.566;19.198;2023-03-13T17:49:47;100282.89;;;13.60;75.68
68712;BME280;55690;51.566;19.198;2023-03-13T17:53:49;100293.08;;;13.48;76.12
68712;BME280;55690;51.566;19.198;2023-03-13T17:57:51;100291.81;;;13.43;76.36
68712;BME280;55690;51.566;19.198;2023-03-13T18:01:54;100287.77;;;13.27;76.84
68712;BME280;55690;51.566;19.198;2023-03-13T18:05:55;100273.27;;;13.85;75.06
68712;BME280;55690;51.566;19.198;2023-03-13T18:09:57;100275.85;;;13.19;75.84
68712;BME280;55690;51.566;19.198;2023-03-13T18:13:58;100275.43;;;13.72;75.56
68712;BME280;55690;51.566;19.198;2023-03-13T18:18:02;100263.36;;;13.74;75.10
68712;BME280;55690;51.566;19.198;2023-03-13T18:22:05;100269.68;;;13.17;76.28
68712;BME280;55690;51.566;19.198;2023-03-13T18:30:23;100253.90;;;13.20;76.06
68712;BME280;55690;51.566;19.198;2023-03-13T18:34:26;100259.45;;;12.99;77.32
68712;BME280;55690;51.566;19.198;2023-03-13T18:38:27;100265.95;;;13.18;76.85
68712;BME280;55690;51.566;19.198;2023-03-13T18:42:29;100286.25;;;13.04;77.01
68712;BME280;55690;51.566;19.198;2023-03-13T18:46:31;100280.73;;;12.75;77.22
68712;BME280;55690;51.566;19.198;2023-03-13T18:50:34;100273.70;;;13.22;76.64
68712;BME280;55690;51.566;19.198;2023-03-13T18:54:36;100264.61;;;13.12;77.19
68712;BME280;55690;51.566;19.198;2023-03-13T18:58:38;100271.47;;;12.87;78.01
68712;BME280;55690;51.566;19.198;2023-03-13T19:02:39;100259.28;;;12.91;78.21
68712;BME280;55690;51.566;19.198;2023-03-13T19:06:41;100252.32;;;13.18;78.11
68712;BME280;55690;51.566;19.198;2023-03-13T19:10:45;100251.59;;;13.16;77.38
68712;BME280;55690;51.566;19.198;2023-03-13T19:14:46;100240.57;;;13.37;76.81
68712;BME280;55690;51.566;19.198;2023-03-13T19:18:49;100251.74;;;13.24;77.67
68712;BME280;55690;51.566;19.198;2023-03-13T19:22:51;100250.05;;;13.42;76.84
68712;BME280;55690;51.566;19.198;2023-03-13T19:26:54;100255.90;;;13.47;76.35
68712;BME280;55690;51.566;19.198;2023-03-13T19:30:58;100253.92;;;13.40;76.63
68712;BME280;55690;51.566;19.198;2023-03-13T19:34:59;100251.74;;;13.24;76.83
68712;BME280;55690;51.566;19.198;2023-03-13T19:39:01;100249.02;;;13.24;77.32
68712;BME280;55690;51.566;19.198;2023-03-13T19:43:02;100241.84;;;13.23;77.08
68712;BME280;55690;51.566;19.198;2023-03-13T19:47:12;100239.36;;;13.10;76.71
68712;BME280;55690;51.566;19.198;2023-03-13T19:51:15;100231.88;;;13.03;76.86
68712;BME280;55690;51.566;19.198;2023-03-13T19:55:21;100222.84;;;13.02;76.65
68712;BME280;55690;51.566;19.198;2023-03-13T19:59:27;100225.30;;;13.15;76.62
68712;BME280;55690;51.566;19.198;2023-03-13T20:03:33;100228.80;;;13.36;75.89
68712;BME280;55690;51.566;19.198;2023-03-13T20:07:39;100243.13;;;13.19;75.67
68712;BME280;55690;51.566;19.198;2023-03-13T20:11:45;100225.92;;;13.28;76.48
68712;BME280;55690;51.566;19.198;2023-03-13T20:15:51;100222.57;;;13.15;76.40
68712;BME280;55690;51.566;19.198;2023-03-13T20:19:58;100229.59;;;12.88;76.67
68712;BME280;55690;51.566;19.198;2023-03-13T20:24:05;100209.27;;;13.31;75.87
68712;BME280;55690;51.566;19.198;2023-03-13T20:28:11;100213.87;;;13.40;75.26
68712;BME280;55690;51.566;19.198;2023-03-13T20:32:16;100201.49;;;13.46;74.46
68712;BME280;55690;51.566;19.198;2023-03-13T20:36:23;100203.25;;;13.37;74.68
68712;BME280;55690;51.566;19.198;2023-03-13T20:40:29;100195.21;;;13.16;74.41
68712;BME280;55690;51.566;19.198;2023-03-13T20:44:35;100167.62;;;13.10;74.83
68712;BME280;55690;51.566;19.198;2023-03-13T20:48:41;100186.02;;;13.37;73.88
68712;BME280;55690;51.566;19.198;2023-03-13T20:52:47;100184.78;;;12.62;75.18
68712;BME280;55690;51.566;19.198;2023-03-13T20:56:53;100173.02;;;12.61;75.27
68712;BME280;55690;51.566;19.198;2023-03-13T21:01:00;100175.66;;;12.92;74.65
68712;BME280;55690;51.566;19.198;2023-03-13T21:05:07;100170.77;;;12.76;75.09
68712;BME280;55690;51.566;19.198;2023-03-13T21:09:12;100176.59;;;12.43;75.30
68712;BME280;55690;51.566;19.198;2023-03-13T21:13:18;100156.14;;;12.77;74.86
68712;BME280;55690;51.566;19.198;2023-03-13T21:17:24;100155.18;;;12.28;75.25
68712;BME280;55690;51.566;19.198;2023-03-13T21:21:30;100151.51;;;12.58;75.17
68712;BME280;55690;51.566;19.198;2023-03-13T21:25:36;100143.73;;;12.35;75.29
68712;BME280;55690;51.566;19.198;2023-03-13T21:29:43;100143.02;;;12.32;75.38
68712;BME280;55690;51.566;19.198;2023-03-13T21:33:49;100139.61;;;12.59;75.04
68712;BME280;55690;51.566;19.198;2023-03-13T21:37:55;100130.48;;;12.89;74.20
68712;BME280;55690;51.566;19.198;2023-03-13T21:42:01;100113.55;;;12.76;74.09
68712;BME280;55690;51.566;19.198;2023-03-13T21:46:09;100125.04;;;12.99;73.83
68712;BME280;55690;51.566;19.198;2023-03-13T21:50:13;100117.11;;;12.57;74.28
68712;BME280;55690;51.566;19.198;2023-03-13T21:54:20;100109.09;;;13.04;73.70
68712;BME280;55690;51.566;19.198;2023-03-13T21:58:26;100105.66;;;13.21;73.78
68712;BME280;55690;51.566;19.198;2023-03-13T22:02:33;100105.38;;;12.95;73.66
68712;BME280;55690;51.566;19.198;2023-03-13T22:06:38;100105.81;;;13.20;73.45
68712;BME280;55690;51.566;19.198;2023-03-13T22:10:50;100097.75;;;12.60;74.25
68712;BME280;55690;51.566;19.198;2023-03-13T22:14:54;100093.30;;;13.08;73.71
68712;BME280;55690;51.566;19.198;2023-03-13T22:18:57;100100.21;;;12.83;73.88
68712;BME280;55690;51.566;19.198;2023-03-13T22:23:03;100091.62;;;12.78;73.55
68712;BME280;55690;51.566;19.198;2023-03-13T22:27:09;100076.11;;;13.17;73.05
68712;BME280;55690;51.566;19.198;2023-03-13T22:31:15;100064.75;;;13.12;73.27
68712;BME280;55690;51.566;19.198;2023-03-13T22:35:21;100075.80;;;13.39;72.17
68712;BME280;55690;51.566;19.198;2023-03-13T22:39:28;100074.66;;;13.32;72.36
68712;BME280;55690;51.566;19.198;2023-03-13T22:43:34;100072.64;;;13.05;72.58
68712;BME280;55690;51.566;19.198;2023-03-13T22:47:40;100060.88;;;13.14;72.05
68712;BME280;55690;51.566;19.198;2023-03-13T22:51:46;100067.91;;;13.07;72.32
68712;BME280;55690;51.566;19.198;2023-03-13T22:55:52;100066.63;;;13.02;72.09
68712;BME280;55690;51.566;19.198;2023-03-13T22:59:59;100068.91;;;13.35;71.23